createdAt,value
2023-03-23T15:59:42.828Z,0.65
2023-03-23T16:02:46.925Z,0.63
2023-03-23T16:05:50.513Z,0.40
2023-03-23T16:08:55.059Z,0.30
2023-03-23T16:11:57.396Z,0.40
2023-03-23T16:14:59.475Z,0.50
2023-03-23T16:18:01.514Z,0.60
2023-03-23T16:21:05.201Z,0.43
2023-03-23T16:24:08.669Z,0.40
2023-03-23T16:27:11.496Z,0.45
2023-03-23T16:30:16.248Z,1.80
2023-03-23T16:33:18.212Z,1.95
2023-03-23T16:36:20.412Z,2.10
2023-03-23T16:39:23.386Z,1.23
2023-03-23T16:42:25.598Z,0.65
2023-03-23T16:45:27.613Z,0.70
2023-03-23T16:48:29.777Z,0.40
2023-03-23T16:51:31.749Z,0.80
2023-03-23T16:54:33.852Z,0.30
2023-03-23T16:57:37.584Z,0.93
2023-03-23T17:00:40.729Z,1.17
2023-03-23T17:03:43.983Z,1.50
2023-03-23T17:06:46.848Z,1.75
2023-03-23T17:09:49.614Z,3.03
2023-03-23T17:12:51.735Z,1.73
2023-03-23T17:15:56.467Z,2.97
2023-03-23T17:18:58.526Z,1.67
2023-03-23T17:22:00.790Z,1.92
2023-03-23T17:25:03.704Z,2.43
2023-03-23T17:28:07.080Z,3.53
2023-03-23T17:31:09.226Z,3.83
2023-03-23T17:34:11.425Z,4.13
2023-03-23T17:37:13.413Z,3.70
2023-03-23T17:40:15.827Z,3.33
2023-03-23T17:43:17.955Z,2.40
2023-03-23T17:46:19.911Z,2.65
2023-03-23T17:49:23.218Z,3.00
2023-03-23T17:52:25.929Z,2.25
2023-03-23T17:55:27.970Z,3.73
2023-03-23T17:58:29.883Z,2.95
2023-03-23T18:01:31.887Z,2.35
2023-03-23T18:04:34.395Z,2.55
2023-03-23T18:07:37.092Z,3.03
2023-03-23T18:10:40.837Z,2.30
2023-03-23T18:13:42.875Z,3.80
2023-03-23T18:16:45.110Z,1.58
2023-03-23T18:19:47.363Z,2.95
2023-03-23T18:22:49.415Z,2.97
2023-03-23T18:25:53.887Z,2.17
2023-03-23T18:28:56.557Z,2.42
2023-03-23T18:31:58.846Z,1.58
2023-03-23T18:35:01.084Z,1.73
2023-03-23T18:38:03.342Z,1.10
2023-03-23T18:41:09.843Z,1.40
2023-03-23T18:44:11.920Z,1.08
2023-03-23T18:47:13.999Z,1.33
2023-03-23T18:50:15.989Z,0.60
2023-03-23T18:53:18.934Z,1.20
2023-03-23T18:56:21.119Z,1.73
2023-03-23T18:59:24.115Z,1.17
2023-03-23T19:02:26.459Z,1.25
2023-03-23T19:05:28.516Z,1.30
2023-03-23T19:08:32.570Z,1.27
2023-03-23T19:11:34.593Z,1.40
2023-03-23T19:14:37.350Z,1.20
2023-03-23T19:17:39.402Z,1.52
2023-03-23T19:21:09.570Z,1.35
2023-03-23T19:24:04.836Z,0.88
2023-03-23T19:27:08.168Z,1.50
2023-03-23T19:30:10.952Z,1.15
2023-03-23T19:33:13.505Z,2.22
2023-03-23T19:36:16.737Z,1.75
2023-03-23T19:39:19.178Z,1.35
2023-03-23T19:42:21.410Z,0.97
2023-03-23T19:45:23.351Z,2.58
2023-03-23T19:48:25.824Z,0.73
2023-03-23T19:51:28.579Z,0.73
2023-03-23T19:54:31.176Z,1.23
2023-03-23T19:57:33.346Z,0.87
2023-03-23T20:00:36.211Z,1.05
2023-03-23T20:03:38.789Z,0.80
2023-03-23T20:06:41.120Z,0.90
2023-03-23T20:09:43.261Z,1.05
2023-03-23T20:12:45.540Z,0.87
2023-03-23T20:15:52.770Z,0.82
2023-03-23T20:18:56.024Z,0.85
2023-03-23T20:22:04.250Z,1.08
2023-03-23T20:25:08.012Z,1.38
2023-03-23T20:28:10.252Z,1.00
2023-03-23T20:31:23.126Z,0.90
2023-03-23T20:34:29.361Z,1.33
2023-03-23T20:37:32.433Z,1.25
2023-03-23T20:40:34.484Z,1.13
2023-03-23T20:43:36.705Z,0.80
2023-03-23T20:46:38.856Z,0.63
2023-03-23T20:49:40.821Z,1.33
2023-03-23T20:52:43.084Z,1.70
2023-03-23T20:55:45.771Z,1.75
2023-03-23T20:58:47.886Z,0.77
2023-03-23T21:01:50.577Z,2.08
2023-03-23T21:04:52.938Z,0.60
2023-03-23T21:07:57.945Z,1.55
2023-03-23T21:11:00.188Z,1.38
2023-03-23T21:14:03.419Z,1.63
2023-03-23T21:17:06.564Z,1.17
2023-03-23T21:20:11.612Z,0.80
2023-03-23T21:23:14.909Z,0.82
2023-03-23T21:26:17.339Z,1.20
2023-03-23T21:29:20.025Z,0.68
2023-03-23T21:32:22.121Z,0.82
2023-03-23T21:35:24.773Z,0.63
2023-03-23T21:38:27.967Z,1.00
2023-03-23T21:41:30.113Z,0.50
2023-03-23T21:44:44.358Z,1.60
2023-03-23T21:47:47.361Z,1.08
2023-03-23T21:50:49.522Z,1.00
2023-03-23T21:53:55.724Z,1.35
2023-03-23T21:56:58.975Z,0.87
2023-03-23T22:00:01.114Z,1.00
2023-03-23T22:03:06.230Z,0.75
2023-03-23T22:06:14.986Z,0.77
2023-03-23T22:09:17.347Z,1.27
2023-03-23T22:12:20.174Z,1.90
2023-03-23T22:15:27.829Z,1.10
2023-03-23T22:18:30.209Z,0.77
2023-03-23T22:21:32.516Z,0.77
2023-03-23T22:24:34.638Z,0.50
2023-03-23T22:27:36.640Z,1.02
2023-03-23T22:30:38.969Z,0.70
2023-03-23T22:33:41.209Z,0.50
2023-03-23T22:36:43.359Z,1.00
2023-03-23T22:39:45.354Z,1.57
2023-03-23T22:42:47.692Z,0.93
2023-03-23T22:45:53.186Z,1.17
2023-03-23T22:48:55.746Z,0.50
2023-03-23T22:51:57.702Z,0.73
2023-03-23T22:54:59.885Z,0.40
2023-03-23T22:58:01.929Z,0.47
2023-03-23T23:01:07.761Z,1.00
2023-03-23T23:04:09.996Z,1.20
2023-03-23T23:07:14.296Z,0.63
2023-03-23T23:10:16.471Z,1.05
2023-03-23T23:13:19.439Z,0.80
2023-03-23T23:16:22.311Z,0.85
2023-03-23T23:19:24.406Z,0.77
2023-03-23T23:22:26.784Z,0.43
2023-03-23T23:25:30.638Z,1.45
2023-03-23T23:28:32.878Z,1.23
2023-03-23T23:31:35.030Z,1.00
2023-03-23T23:34:37.119Z,1.20
2023-03-23T23:37:39.317Z,1.15
2023-03-23T23:40:43.516Z,0.73
2023-03-23T23:43:46.035Z,0.93
2023-03-23T23:46:48.317Z,0.70
2023-03-23T23:49:50.446Z,1.02
2023-03-23T23:52:52.808Z,0.98
2023-03-23T23:55:55.101Z,1.23
2023-03-23T23:58:58.214Z,1.35
